createdAt,value
2023-04-16T00:00:05.582Z,6.48
2023-04-16T00:05:13.639Z,6.55
2023-04-16T00:10:16.113Z,6.61
2023-04-16T00:15:17.917Z,6.59
2023-04-16T00:20:20.518Z,6.55
2023-04-16T00:25:22.534Z,6.50
2023-04-16T00:30:24.286Z,6.46
2023-04-16T00:35:26.117Z,6.43
2023-04-16T00:40:29.198Z,6.44
2023-04-16T00:45:31.346Z,6.42
2023-04-16T00:50:34.047Z,6.46
2023-04-16T00:55:36.755Z,6.48
2023-04-16T01:00:38.671Z,6.40
2023-04-16T01:05:41.083Z,6.31
2023-04-16T01:10:42.980Z,6.32
2023-04-16T01:15:44.825Z,6.23
2023-04-16T01:20:48.057Z,6.24
2023-04-16T01:25:49.911Z,6.36
2023-04-16T01:30:51.860Z,6.41
2023-04-16T01:36:14.056Z,6.41
2023-04-16T01:41:15.989Z,6.48
2023-04-16T01:46:27.274Z,6.63
2023-04-16T01:51:29.117Z,6.73
2023-04-16T01:56:30.969Z,6.78
2023-04-16T02:01:32.852Z,6.88
2023-04-16T02:06:34.940Z,6.90
2023-04-16T02:11:36.972Z,6.92
2023-04-16T02:16:38.929Z,6.92
2023-04-16T02:21:55.060Z,6.86
2023-04-16T02:26:57.049Z,6.79
2023-04-16T02:31:59.830Z,6.80
2023-04-16T02:37:03.026Z,6.73
2023-04-16T02:42:04.883Z,6.69
2023-04-16T02:47:06.701Z,6.64
2023-04-16T02:52:08.480Z,6.65
2023-04-16T02:57:10.354Z,6.66
2023-04-16T03:02:12.364Z,6.64
2023-04-16T03:07:14.347Z,6.68
2023-04-16T03:12:16.256Z,6.68
2023-04-16T03:17:18.137Z,6.69
2023-04-16T03:22:20.153Z,6.67
2023-04-16T03:27:21.971Z,6.64
2023-04-16T03:32:24.057Z,6.62
2023-04-16T03:37:26.236Z,6.59
2023-04-16T03:42:28.391Z,6.58
2023-04-16T03:47:32.401Z,6.51
2023-04-16T03:52:37.431Z,6.51
2023-04-16T03:57:39.325Z,6.43
2023-04-16T04:02:45.973Z,6.41
2023-04-16T04:07:53.971Z,6.40
2023-04-16T04:12:55.816Z,6.43
2023-04-16T04:17:57.917Z,6.37
2023-04-16T04:22:59.942Z,6.30
2023-04-16T04:28:02.500Z,6.18
2023-04-16T04:33:04.521Z,6.16
2023-04-16T04:38:06.663Z,6.21
2023-04-16T04:43:09.355Z,6.31
2023-04-16T04:48:11.320Z,6.42
2023-04-16T04:53:14.964Z,6.55
2023-04-16T04:58:17.703Z,6.61
2023-04-16T05:03:21.482Z,6.65
2023-04-16T05:08:23.204Z,6.67
2023-04-16T05:13:24.786Z,6.65
2023-04-16T05:18:26.737Z,6.68
2023-04-16T05:23:28.366Z,6.77
2023-04-16T05:28:31.066Z,6.94
2023-04-16T05:33:32.733Z,7.13
2023-04-16T05:38:34.426Z,7.23
2023-04-16T05:43:36.062Z,7.10
2023-04-16T05:48:37.715Z,7.22
2023-04-16T05:53:39.356Z,7.50
2023-04-16T05:58:41.000Z,7.77
2023-04-16T06:03:42.716Z,8.02
2023-04-16T06:08:44.392Z,8.15
2023-04-16T06:13:46.035Z,8.13
2023-04-16T06:18:47.774Z,8.05
2023-04-16T06:23:49.455Z,8.14
2023-04-16T06:28:51.132Z,8.44
2023-04-16T06:33:52.721Z,8.59
2023-04-16T06:38:54.341Z,8.56
2023-04-16T06:43:56.028Z,8.69
2023-04-16T06:48:57.615Z,8.65
2023-04-16T06:53:59.360Z,8.43
2023-04-16T06:59:01.061Z,8.49
2023-04-16T07:04:03.722Z,8.82
2023-04-16T07:09:05.660Z,9.29
2023-04-16T07:14:07.495Z,9.27
2023-04-16T07:19:09.527Z,9.36
2023-04-16T07:24:11.824Z,9.64
2023-04-16T07:29:13.626Z,10.12
2023-04-16T07:34:15.362Z,10.31
2023-04-16T07:39:17.099Z,10.50
2023-04-16T07:44:18.828Z,10.47
2023-04-16T07:49:20.641Z,10.26
2023-04-16T07:54:24.414Z,10.31
2023-04-16T07:59:26.497Z,10.30
2023-04-16T08:04:28.571Z,10.39
2023-04-16T08:09:30.406Z,10.65
2023-04-16T08:14:32.082Z,10.39
2023-04-16T08:19:33.732Z,11.00
2023-04-16T08:24:35.411Z,11.51
2023-04-16T08:29:37.049Z,11.90
2023-04-16T08:34:38.684Z,11.38
2023-04-16T08:39:40.520Z,11.81
2023-04-16T08:44:49.014Z,11.61
2023-04-16T08:49:57.924Z,12.42
2023-04-16T08:55:14.348Z,12.55
2023-04-16T09:00:16.850Z,12.83
2023-04-16T09:05:20.747Z,12.95
2023-04-16T09:10:23.173Z,13.05
2023-04-16T09:15:25.820Z,12.77
2023-04-16T09:20:27.471Z,13.50
2023-04-16T09:25:33.770Z,13.67
2023-04-16T09:30:37.153Z,13.09
2023-04-16T09:35:52.767Z,13.05
2023-04-16T09:41:08.209Z,12.61
2023-04-16T09:46:12.929Z,12.41
2023-04-16T09:51:14.610Z,12.94
2023-04-16T09:56:16.572Z,12.75
2023-04-16T10:01:18.314Z,13.10
2023-04-16T10:06:22.173Z,12.59
2023-04-16T10:11:24.551Z,12.57
2023-04-16T10:16:26.775Z,13.18
2023-04-16T10:21:34.129Z,13.65
2023-04-16T10:26:36.584Z,13.27
2023-04-16T10:31:39.676Z,13.74
2023-04-16T10:36:42.059Z,14.45
2023-04-16T10:41:43.738Z,14.40
2023-04-16T10:46:50.530Z,13.80
2023-04-16T10:52:02.346Z,14.06
2023-04-16T10:57:08.584Z,13.46
2023-04-16T11:02:16.340Z,14.24
2023-04-16T11:07:20.479Z,14.40
2023-04-16T11:12:24.655Z,13.96
2023-04-16T11:17:43.337Z,13.14
2023-04-16T11:22:47.840Z,12.91
2023-04-16T11:27:50.595Z,12.83
2023-04-16T11:32:52.314Z,13.06
2023-04-16T11:37:58.021Z,13.23
2023-04-16T11:43:16.802Z,14.20
2023-04-16T11:48:18.399Z,15.14
2023-04-16T11:53:20.066Z,15.54
2023-04-16T11:58:23.368Z,15.27
2023-04-16T12:03:44.249Z,15.32
2023-04-16T12:08:46.135Z,14.58
2023-04-16T12:14:07.081Z,14.45
2023-04-16T12:19:12.510Z,14.10
2023-04-16T12:24:16.765Z,14.36
2023-04-16T12:29:23.923Z,13.84
2023-04-16T12:34:29.099Z,14.72
2023-04-16T12:39:48.143Z,14.42
2023-04-16T12:44:50.003Z,16.30
2023-04-16T12:49:51.617Z,16.97
2023-04-16T12:54:53.469Z,15.79
2023-04-16T12:59:58.967Z,16.66
2023-04-16T13:05:00.662Z,18.08
2023-04-16T13:10:02.762Z,17.04
2023-04-16T13:15:05.171Z,17.54
2023-04-16T13:20:07.651Z,17.68
2023-04-16T13:25:09.873Z,19.03
2023-04-16T13:30:11.882Z,18.18
2023-04-16T13:35:13.546Z,17.08
2023-04-16T13:40:15.259Z,16.03
2023-04-16T13:45:17.027Z,16.90
2023-04-16T13:50:18.782Z,16.73
2023-04-16T13:55:20.485Z,16.82
2023-04-16T14:00:22.296Z,18.91
2023-04-16T14:05:26.441Z,18.65
2023-04-16T14:10:29.107Z,16.39
2023-04-16T14:15:30.850Z,16.60
2023-04-16T14:20:33.221Z,15.92
2023-04-16T14:25:35.289Z,14.88
2023-04-16T14:30:36.936Z,14.53
2023-04-16T14:35:38.594Z,13.18
2023-04-16T14:40:40.240Z,13.58
2023-04-16T14:45:41.922Z,13.99
2023-04-16T14:50:44.284Z,13.54
2023-04-16T14:55:45.942Z,13.40
2023-04-16T15:00:50.020Z,12.67
2023-04-16T15:05:55.757Z,12.98
2023-04-16T15:10:57.549Z,13.12
2023-04-16T15:16:03.042Z,12.51
2023-04-16T15:21:04.694Z,12.47
2023-04-16T15:26:06.643Z,11.83
2023-04-16T15:31:08.665Z,11.89
2023-04-16T15:36:11.346Z,11.98
2023-04-16T15:41:13.074Z,11.93
2023-04-16T15:46:15.090Z,11.66
2023-04-16T15:51:16.865Z,11.28
2023-04-16T15:56:19.767Z,10.72
2023-04-16T16:01:22.325Z,10.68
2023-04-16T16:06:24.339Z,10.81
2023-04-16T16:11:26.374Z,10.46
2023-04-16T16:16:28.557Z,10.29
2023-04-16T16:21:33.243Z,9.90
2023-04-16T16:26:34.940Z,9.86
2023-04-16T16:31:36.641Z,9.52
2023-04-16T16:36:38.258Z,9.11
2023-04-16T16:41:42.092Z,8.88
2023-04-16T16:46:43.784Z,8.73
2023-04-16T16:51:46.793Z,8.53
2023-04-16T16:56:48.441Z,8.40
2023-04-16T17:07:19.654Z,8.40
2023-04-16T17:12:23.317Z,8.34
2023-04-16T17:17:26.868Z,8.30
2023-04-16T17:22:28.750Z,8.34
2023-04-16T17:27:34.447Z,8.34
2023-04-16T17:32:36.570Z,8.34
2023-04-16T17:37:38.551Z,8.12
2023-04-16T17:42:40.540Z,8.15
2023-04-16T17:47:42.553Z,8.09
2023-04-16T17:52:44.728Z,8.05
2023-04-16T17:57:46.646Z,7.97
2023-04-16T18:02:48.614Z,7.83
2023-04-16T18:07:50.698Z,7.76
2023-04-16T18:12:52.831Z,7.69
2023-04-16T18:17:54.805Z,7.68
2023-04-16T18:22:56.861Z,7.56
2023-04-16T18:27:59.192Z,7.52
2023-04-16T18:33:26.241Z,7.56
2023-04-16T18:38:23.267Z,7.55
2023-04-16T18:43:25.561Z,7.58
2023-04-16T18:48:27.578Z,7.58
2023-04-16T18:53:29.696Z,7.55
2023-04-16T18:58:31.632Z,7.56
2023-04-16T19:03:33.573Z,7.54
2023-04-16T19:08:35.609Z,7.56
2023-04-16T19:13:38.722Z,7.58
2023-04-16T19:18:40.629Z,7.56
2023-04-16T19:23:42.998Z,7.57
2023-04-16T19:28:45.767Z,7.60
2023-04-16T19:33:47.691Z,7.67
2023-04-16T19:38:50.273Z,7.67
2023-04-16T19:43:54.964Z,7.72
2023-04-16T19:48:57.052Z,7.69
2023-04-16T19:53:59.136Z,7.68
2023-04-16T19:59:02.137Z,7.67
2023-04-16T20:04:04.326Z,7.70
2023-04-16T20:09:06.188Z,7.74
2023-04-16T20:14:07.990Z,7.81
2023-04-16T20:19:10.209Z,7.73
2023-04-16T20:24:12.572Z,7.81
2023-04-16T20:29:14.857Z,7.76
2023-04-16T20:34:16.733Z,7.70
2023-04-16T20:39:20.441Z,7.66
2023-04-16T20:44:26.396Z,7.58
2023-04-16T20:49:28.292Z,7.60
2023-04-16T20:54:31.090Z,7.62
2023-04-16T20:59:32.936Z,7.61
2023-04-16T21:04:35.003Z,7.63
2023-04-16T21:09:37.265Z,7.60
2023-04-16T21:14:39.123Z,7.62
2023-04-16T21:19:41.093Z,7.61
2023-04-16T21:24:42.933Z,7.60
2023-04-16T21:29:44.763Z,7.50
2023-04-16T21:34:46.595Z,7.44
2023-04-16T21:39:48.455Z,7.38
2023-04-16T21:44:50.263Z,7.31
2023-04-16T21:49:52.085Z,7.40
2023-04-16T21:54:53.966Z,7.35
2023-04-16T21:59:55.764Z,7.33
2023-04-16T22:04:57.636Z,7.31
2023-04-16T22:09:59.526Z,7.30
2023-04-16T22:15:03.172Z,7.28
2023-04-16T22:20:07.055Z,7.31
2023-04-16T22:25:09.822Z,7.26
2023-04-16T22:30:13.414Z,7.25
2023-04-16T22:35:15.572Z,7.17
2023-04-16T22:40:18.245Z,7.18
2023-04-16T22:45:20.106Z,7.21
2023-04-16T22:50:23.246Z,7.24
2023-04-16T22:55:25.098Z,7.22
2023-04-16T23:00:27.414Z,7.19
2023-04-16T23:05:30.532Z,7.21
2023-04-16T23:10:32.592Z,7.25
2023-04-16T23:15:34.631Z,7.27
2023-04-16T23:20:36.476Z,7.24
2023-04-16T23:25:41.242Z,7.30
2023-04-16T23:30:43.059Z,7.26
2023-04-16T23:35:46.232Z,7.24
2023-04-16T23:40:48.069Z,7.19
2023-04-16T23:45:49.981Z,7.21
2023-04-16T23:50:53.876Z,7.20
2023-04-16T23:55:55.646Z,7.22
